sensor_id;sensor_type;location;lat;lon;timestamp;P1;durP1;ratioP1;P2;durP2;ratioP2
2177;SDS011;1095;50.992;6.798;2023-11-21T00:02:19;22.33;;;14.85;;
2177;SDS011;1095;50.992;6.798;2023-11-21T00:04:47;24.25;;;14.82;;
2177;SDS011;1095;50.992;6.798;2023-11-21T00:07:14;20.70;;;13.70;;
2177;SDS011;1095;50.992;6.798;2023-11-21T00:09:42;23.58;;;14.80;;
2177;SDS011;1095;50.992;6.798;2023-11-21T00:12:10;21.50;;;15.15;;
2177;SDS011;1095;50.992;6.798;2023-11-21T00:14:36;25.40;;;15.00;;
2177;SDS011;1095;50.992;6.798;2023-11-21T00:17:03;21.92;;;15.00;;
2177;SDS011;1095;50.992;6.798;2023-11-21T00:19:30;26.17;;;16.38;;
2177;SDS011;1095;50.992;6.798;2023-11-21T00:21:57;25.42;;;16.42;;
2177;SDS011;1095;50.992;6.798;2023-11-21T00:24:24;24.27;;;16.02;;
2177;SDS011;1095;50.992;6.798;2023-11-21T00:26:50;24.60;;;16.13;;
2177;SDS011;1095;50.992;6.798;2023-11-21T00:29:19;30.25;;;16.98;;
2177;SDS011;1095;50.992;6.798;2023-11-21T00:31:46;25.80;;;16.55;;
2177;SDS011;1095;50.992;6.798;2023-11-21T00:34:12;31.73;;;17.38;;
2177;SDS011;1095;50.992;6.798;2023-11-21T00:36:39;29.67;;;16.08;;
2177;SDS011;1095;50.992;6.798;2023-11-21T00:39:06;27.77;;;15.18;;
2177;SDS011;1095;50.992;6.798;2023-11-21T00:41:33;25.17;;;16.75;;
2177;SDS011;1095;50.992;6.798;2023-11-21T00:44:01;26.20;;;16.25;;
2177;SDS011;1095;50.992;6.798;2023-11-21T00:46:29;29.90;;;17.27;;
2177;SDS011;1095;50.992;6.798;2023-11-21T00:48:56;30.10;;;17.33;;
2177;SDS011;1095;50.992;6.798;2023-11-21T00:51:22;28.77;;;16.85;;
2177;SDS011;1095;50.992;6.798;2023-11-21T00:53:49;27.10;;;17.20;;
2177;SDS011;1095;50.992;6.798;2023-11-21T00:56:16;27.58;;;17.33;;
2177;SDS011;1095;50.992;6.798;2023-11-21T00:58:42;27.35;;;18.63;;
2177;SDS011;1095;50.992;6.798;2023-11-21T01:01:14;23.85;;;17.63;;
2177;SDS011;1095;50.992;6.798;2023-11-21T01:03:42;29.40;;;17.23;;
2177;SDS011;1095;50.992;6.798;2023-11-21T01:06:09;25.83;;;16.00;;
2177;SDS011;1095;50.992;6.798;2023-11-21T01:08:35;27.30;;;16.73;;
2177;SDS011;1095;50.992;6.798;2023-11-21T01:11:02;21.98;;;15.70;;
2177;SDS011;1095;50.992;6.798;2023-11-21T01:13:29;25.75;;;16.30;;
2177;SDS011;1095;50.992;6.798;2023-11-21T01:15:56;22.63;;;15.70;;
2177;SDS011;1095;50.992;6.798;2023-11-21T01:18:23;26.45;;;15.70;;
2177;SDS011;1095;50.992;6.798;2023-11-21T01:20:52;26.92;;;16.13;;
2177;SDS011;1095;50.992;6.798;2023-11-21T01:23:19;30.50;;;16.52;;
2177;SDS011;1095;50.992;6.798;2023-11-21T01:25:45;30.35;;;17.40;;
2177;SDS011;1095;50.992;6.798;2023-11-21T01:28:12;33.20;;;15.50;;
2177;SDS011;1095;50.992;6.798;2023-11-21T01:30:38;28.80;;;16.50;;
2177;SDS011;1095;50.992;6.798;2023-11-21T01:33:05;35.47;;;17.95;;
2177;SDS011;1095;50.992;6.798;2023-11-21T01:35:32;31.08;;;17.60;;
2177;SDS011;1095;50.992;6.798;2023-11-21T01:38:00;28.63;;;19.13;;
2177;SDS011;1095;50.992;6.798;2023-11-21T01:40:27;33.28;;;17.75;;
2177;SDS011;1095;50.992;6.798;2023-11-21T01:42:54;28.00;;;17.52;;
2177;SDS011;1095;50.992;6.798;2023-11-21T01:45:21;28.63;;;17.95;;
2177;SDS011;1095;50.992;6.798;2023-11-21T01:47:49;26.35;;;18.48;;
2177;SDS011;1095;50.992;6.798;2023-11-21T01:50:16;27.83;;;18.25;;
2177;SDS011;1095;50.992;6.798;2023-11-21T01:52:43;33.08;;;19.02;;
2177;SDS011;1095;50.992;6.798;2023-11-21T01:55:12;32.60;;;18.42;;
2177;SDS011;1095;50.992;6.798;2023-11-21T01:57:43;29.40;;;18.65;;
2177;SDS011;1095;50.992;6.798;2023-11-21T02:00:10;28.95;;;20.05;;
2177;SDS011;1095;50.992;6.798;2023-11-21T02:02:41;31.83;;;19.23;;
2177;SDS011;1095;50.992;6.798;2023-11-21T02:05:08;36.28;;;19.65;;
2177;SDS011;1095;50.992;6.798;2023-11-21T02:07:37;30.45;;;20.20;;
2177;SDS011;1095;50.992;6.798;2023-11-21T02:10:04;29.75;;;20.58;;
2177;SDS011;1095;50.992;6.798;2023-11-21T02:12:33;30.20;;;20.48;;
2177;SDS011;1095;50.992;6.798;2023-11-21T02:15:00;34.63;;;21.15;;
2177;SDS011;1095;50.992;6.798;2023-11-21T02:17:27;32.20;;;21.08;;
2177;SDS011;1095;50.992;6.798;2023-11-21T02:19:55;35.28;;;22.38;;
2177;SDS011;1095;50.992;6.798;2023-11-21T02:22:21;35.92;;;20.80;;
2177;SDS011;1095;50.992;6.798;2023-11-21T02:24:52;33.20;;;21.35;;
2177;SDS011;1095;50.992;6.798;2023-11-21T02:27:19;31.92;;;21.95;;
2177;SDS011;1095;50.992;6.798;2023-11-21T02:29:48;38.63;;;22.88;;
2177;SDS011;1095;50.992;6.798;2023-11-21T02:32:15;39.45;;;23.20;;
2177;SDS011;1095;50.992;6.798;2023-11-21T02:34:44;35.80;;;22.55;;
2177;SDS011;1095;50.992;6.798;2023-11-21T02:37:10;36.55;;;22.48;;
2177;SDS011;1095;50.992;6.798;2023-11-21T02:39:37;34.13;;;22.33;;
2177;SDS011;1095;50.992;6.798;2023-11-21T02:42:05;34.70;;;22.58;;
2177;SDS011;1095;50.992;6.798;2023-11-21T02:44:32;38.20;;;22.55;;
2177;SDS011;1095;50.992;6.798;2023-11-21T02:46:59;37.22;;;21.55;;
2177;SDS011;1095;50.992;6.798;2023-11-21T02:49:26;34.75;;;20.85;;
2177;SDS011;1095;50.992;6.798;2023-11-21T02:51:53;38.05;;;22.63;;
2177;SDS011;1095;50.992;6.798;2023-11-21T02:54:20;36.53;;;22.88;;
2177;SDS011;1095;50.992;6.798;2023-11-21T02:56:47;39.58;;;20.60;;
2177;SDS011;1095;50.992;6.798;2023-11-21T02:59:16;34.65;;;22.35;;
2177;SDS011;1095;50.992;6.798;2023-11-21T03:01:42;32.85;;;21.20;;
2177;SDS011;1095;50.992;6.798;2023-11-21T03:04:09;40.30;;;22.08;;
2177;SDS011;1095;50.992;6.798;2023-11-21T03:06:36;35.78;;;21.13;;
2177;SDS011;1095;50.992;6.798;2023-11-21T03:09:02;36.22;;;20.95;;
2177;SDS011;1095;50.992;6.798;2023-11-21T03:11:29;40.10;;;21.63;;
2177;SDS011;1095;50.992;6.798;2023-11-21T03:13:57;36.63;;;20.95;;
2177;SDS011;1095;50.992;6.798;2023-11-21T03:16:25;40.83;;;22.00;;
2177;SDS011;1095;50.992;6.798;2023-11-21T03:18:51;35.15;;;22.67;;
2177;SDS011;1095;50.992;6.798;2023-11-21T03:21:18;40.20;;;22.63;;
2177;SDS011;1095;50.992;6.798;2023-11-21T03:23:45;36.55;;;21.25;;
2177;SDS011;1095;50.992;6.798;2023-11-21T03:26:11;38.17;;;20.45;;
2177;SDS011;1095;50.992;6.798;2023-11-21T03:28:39;34.45;;;21.15;;
2177;SDS011;1095;50.992;6.798;2023-11-21T03:31:05;41.97;;;21.02;;
2177;SDS011;1095;50.992;6.798;2023-11-21T03:33:35;37.60;;;21.35;;
2177;SDS011;1095;50.992;6.798;2023-11-21T03:36:02;35.00;;;21.30;;
2177;SDS011;1095;50.992;6.798;2023-11-21T03:38:29;37.45;;;20.83;;
2177;SDS011;1095;50.992;6.798;2023-11-21T03:40:55;37.53;;;20.95;;
2177;SDS011;1095;50.992;6.798;2023-11-21T03:43:22;36.88;;;20.90;;
2177;SDS011;1095;50.992;6.798;2023-11-21T03:45:49;34.97;;;20.10;;
2177;SDS011;1095;50.992;6.798;2023-11-21T03:48:16;36.80;;;20.40;;
2177;SDS011;1095;50.992;6.798;2023-11-21T03:50:44;36.50;;;19.73;;
2177;SDS011;1095;50.992;6.798;2023-11-21T03:53:12;34.40;;;20.50;;
2177;SDS011;1095;50.992;6.798;2023-11-21T03:55:39;38.53;;;21.75;;
2177;SDS011;1095;50.992;6.798;2023-11-21T03:58:05;42.10;;;20.75;;
2177;SDS011;1095;50.992;6.798;2023-11-21T04:00:32;35.08;;;19.13;;
2177;SDS011;1095;50.992;6.798;2023-11-21T04:02:58;31.98;;;19.48;;
2177;SDS011;1095;50.992;6.798;2023-11-21T04:05:25;28.85;;;19.17;;
2177;SDS011;1095;50.992;6.798;2023-11-21T04:07:53;32.47;;;20.08;;
2177;SDS011;1095;50.992;6.798;2023-11-21T04:10:19;34.17;;;19.83;;
2177;SDS011;1095;50.992;6.798;2023-11-21T04:12:47;35.85;;;19.88;;
2177;SDS011;1095;50.992;6.798;2023-11-21T04:15:13;34.72;;;20.42;;
2177;SDS011;1095;50.992;6.798;2023-11-21T04:17:40;38.50;;;21.05;;
2177;SDS011;1095;50.992;6.798;2023-11-21T04:20:08;32.90;;;20.05;;
2177;SDS011;1095;50.992;6.798;2023-11-21T04:22:36;38.53;;;20.05;;
2177;SDS011;1095;50.992;6.798;2023-11-21T04:25:07;34.10;;;19.65;;
2177;SDS011;1095;50.992;6.798;2023-11-21T04:27:34;36.38;;;20.88;;
2177;SDS011;1095;50.992;6.798;2023-11-21T04:30:01;38.72;;;20.33;;
2177;SDS011;1095;50.992;6.798;2023-11-21T04:32:27;39.67;;;20.63;;
2177;SDS011;1095;50.992;6.798;2023-11-21T04:34:54;33.55;;;20.75;;
2177;SDS011;1095;50.992;6.798;2023-11-21T04:37:20;37.88;;;21.02;;
2177;SDS011;1095;50.992;6.798;2023-11-21T04:39:47;40.53;;;20.48;;
2177;SDS011;1095;50.992;6.798;2023-11-21T04:42:16;38.42;;;21.35;;
2177;SDS011;1095;50.992;6.798;2023-11-21T04:44:42;36.17;;;20.05;;
2177;SDS011;1095;50.992;6.798;2023-11-21T04:47:09;35.30;;;19.60;;
2177;SDS011;1095;50.992;6.798;2023-11-21T04:49:36;36.60;;;20.73;;
2177;SDS011;1095;50.992;6.798;2023-11-21T04:52:02;37.50;;;20.55;;
2177;SDS011;1095;50.992;6.798;2023-11-21T04:54:30;35.58;;;19.52;;
2177;SDS011;1095;50.992;6.798;2023-11-21T04:56:57;40.63;;;20.02;;
2177;SDS011;1095;50.992;6.798;2023-11-21T04:59:25;34.72;;;18.48;;
2177;SDS011;1095;50.992;6.798;2023-11-21T05:01:52;36.95;;;20.20;;
2177;SDS011;1095;50.992;6.798;2023-11-21T05:04:19;41.72;;;20.38;;
2177;SDS011;1095;50.992;6.798;2023-11-21T05:06:45;45.00;;;19.92;;
2177;SDS011;1095;50.992;6.798;2023-11-21T05:09:13;32.17;;;19.30;;
2177;SDS011;1095;50.992;6.798;2023-11-21T05:11:40;37.22;;;18.98;;
2177;SDS011;1095;50.992;6.798;2023-11-21T05:14:07;36.15;;;18.25;;
2177;SDS011;1095;50.992;6.798;2023-11-21T05:16:35;35.90;;;20.17;;
2177;SDS011;1095;50.992;6.798;2023-11-21T05:19:01;35.17;;;18.92;;
2177;SDS011;1095;50.992;6.798;2023-11-21T05:21:29;33.70;;;19.48;;
2177;SDS011;1095;50.992;6.798;2023-11-21T05:23:56;40.20;;;19.65;;
2177;SDS011;1095;50.992;6.798;2023-11-21T05:26:23;34.67;;;18.25;;
2177;SDS011;1095;50.992;6.798;2023-11-21T05:28:49;38.20;;;19.50;;
2177;SDS011;1095;50.992;6.798;2023-11-21T05:31:16;39.88;;;19.88;;
2177;SDS011;1095;50.992;6.798;2023-11-21T05:33:44;37.50;;;21.63;;
2177;SDS011;1095;50.992;6.798;2023-11-21T05:36:11;41.30;;;22.02;;
2177;SDS011;1095;50.992;6.798;2023-11-21T05:38:38;44.47;;;21.35;;
2177;SDS011;1095;50.992;6.798;2023-11-21T05:41:04;47.70;;;22.75;;
2177;SDS011;1095;50.992;6.798;2023-11-21T05:43:31;47.95;;;24.45;;
2177;SDS011;1095;50.992;6.798;2023-11-21T05:46:00;47.55;;;24.33;;
2177;SDS011;1095;50.992;6.798;2023-11-21T05:48:27;43.58;;;25.52;;
2177;SDS011;1095;50.992;6.798;2023-11-21T05:50:55;44.38;;;24.98;;
2177;SDS011;1095;50.992;6.798;2023-11-21T05:53:21;50.28;;;25.75;;
2177;SDS011;1095;50.992;6.798;2023-11-21T05:55:48;53.22;;;26.67;;
2177;SDS011;1095;50.992;6.798;2023-11-21T05:58:14;46.95;;;25.98;;
2177;SDS011;1095;50.992;6.798;2023-11-21T06:00:41;49.40;;;24.48;;
2177;SDS011;1095;50.992;6.798;2023-11-21T06:03:08;49.78;;;26.63;;
2177;SDS011;1095;50.992;6.798;2023-11-21T06:05:35;50.10;;;26.15;;
2177;SDS011;1095;50.992;6.798;2023-11-21T06:08:03;50.53;;;26.17;;
2177;SDS011;1095;50.992;6.798;2023-11-21T06:10:31;49.95;;;26.02;;
2177;SDS011;1095;50.992;6.798;2023-11-21T06:12:58;51.17;;;27.55;;
2177;SDS011;1095;50.992;6.798;2023-11-21T06:15:24;50.25;;;27.70;;
2177;SDS011;1095;50.992;6.798;2023-11-21T06:17:51;51.33;;;28.30;;
2177;SDS011;1095;50.992;6.798;2023-11-21T06:20:18;52.75;;;27.02;;
2177;SDS011;1095;50.992;6.798;2023-11-21T06:22:46;54.03;;;27.48;;
2177;SDS011;1095;50.992;6.798;2023-11-21T06:25:14;52.35;;;26.63;;
2177;SDS011;1095;50.992;6.798;2023-11-21T06:27:42;53.47;;;26.90;;
2177;SDS011;1095;50.992;6.798;2023-11-21T06:30:13;56.00;;;26.83;;
2177;SDS011;1095;50.992;6.798;2023-11-21T06:32:42;52.53;;;26.80;;
2177;SDS011;1095;50.992;6.798;2023-11-21T06:35:10;50.72;;;26.60;;
2177;SDS011;1095;50.992;6.798;2023-11-21T06:37:38;52.53;;;27.58;;
2177;SDS011;1095;50.992;6.798;2023-11-21T06:40:05;56.85;;;29.45;;
2177;SDS011;1095;50.992;6.798;2023-11-21T06:42:36;54.95;;;28.25;;
2177;SDS011;1095;50.992;6.798;2023-11-21T06:45:04;56.20;;;28.08;;
2177;SDS011;1095;50.992;6.798;2023-11-21T06:47:31;58.00;;;27.30;;
2177;SDS011;1095;50.992;6.798;2023-11-21T06:49:58;50.70;;;25.92;;
2177;SDS011;1095;50.992;6.798;2023-11-21T06:52:25;53.53;;;28.15;;
2177;SDS011;1095;50.992;6.798;2023-11-21T06:54:52;53.53;;;25.75;;
2177;SDS011;1095;50.992;6.798;2023-11-21T06:57:18;60.03;;;29.17;;
2177;SDS011;1095;50.992;6.798;2023-11-21T06:59:47;56.50;;;27.83;;
2177;SDS011;1095;50.992;6.798;2023-11-21T07:02:15;56.05;;;27.70;;
2177;SDS011;1095;50.992;6.798;2023-11-21T07:04:43;53.55;;;26.42;;
2177;SDS011;1095;50.992;6.798;2023-11-21T07:07:10;55.85;;;27.25;;
2177;SDS011;1095;50.992;6.798;2023-11-21T07:09:37;60.35;;;29.13;;
2177;SDS011;1095;50.992;6.798;2023-11-21T07:12:04;55.42;;;27.02;;
2177;SDS011;1095;50.992;6.798;2023-11-21T07:14:32;54.58;;;27.23;;
2177;SDS011;1095;50.992;6.798;2023-11-21T07:17:00;56.00;;;26.75;;
2177;SDS011;1095;50.992;6.798;2023-11-21T07:19:30;53.75;;;26.55;;
2177;SDS011;1095;50.992;6.798;2023-11-21T07:21:57;50.75;;;26.90;;
2177;SDS011;1095;50.992;6.798;2023-11-21T07:24:23;58.38;;;27.52;;
2177;SDS011;1095;50.992;6.798;2023-11-21T07:26:51;53.13;;;25.80;;
2177;SDS011;1095;50.992;6.798;2023-11-21T07:29:21;58.58;;;29.77;;
2177;SDS011;1095;50.992;6.798;2023-11-21T07:31:50;51.92;;;26.88;;
2177;SDS011;1095;50.992;6.798;2023-11-21T07:34:18;52.80;;;27.42;;
2177;SDS011;1095;50.992;6.798;2023-11-21T07:36:45;50.97;;;24.77;;
2177;SDS011;1095;50.992;6.798;2023-11-21T07:39:12;56.95;;;26.63;;
2177;SDS011;1095;50.992;6.798;2023-11-21T07:41:40;57.83;;;27.40;;
2177;SDS011;1095;50.992;6.798;2023-11-21T07:44:13;53.88;;;26.90;;
2177;SDS011;1095;50.992;6.798;2023-11-21T07:46:40;53.78;;;26.10;;
2177;SDS011;1095;50.992;6.798;2023-11-21T07:49:07;54.97;;;26.75;;
2177;SDS011;1095;50.992;6.798;2023-11-21T07:51:35;52.45;;;26.27;;
2177;SDS011;1095;50.992;6.798;2023-11-21T07:54:02;52.80;;;27.30;;
2177;SDS011;1095;50.992;6.798;2023-11-21T07:56:29;54.97;;;27.30;;
2177;SDS011;1095;50.992;6.798;2023-11-21T07:58:55;54.45;;;28.15;;
2177;SDS011;1095;50.992;6.798;2023-11-21T08:01:22;57.88;;;26.83;;
2177;SDS011;1095;50.992;6.798;2023-11-21T08:03:48;53.40;;;26.38;;
2177;SDS011;1095;50.992;6.798;2023-11-21T08:06:17;55.45;;;27.77;;
2177;SDS011;1095;50.992;6.798;2023-11-21T08:08:45;51.65;;;27.40;;
2177;SDS011;1095;50.992;6.798;2023-11-21T08:11:12;53.90;;;28.13;;
2177;SDS011;1095;50.992;6.798;2023-11-21T08:13:39;53.80;;;27.75;;
2177;SDS011;1095;50.992;6.798;2023-11-21T08:16:06;51.22;;;27.05;;
2177;SDS011;1095;50.992;6.798;2023-11-21T08:18:33;59.60;;;29.05;;
2177;SDS011;1095;50.992;6.798;2023-11-21T08:21:00;56.33;;;27.08;;
2177;SDS011;1095;50.992;6.798;2023-11-21T08:23:28;49.33;;;27.40;;
2177;SDS011;1095;50.992;6.798;2023-11-21T08:25:56;59.67;;;26.80;;
2177;SDS011;1095;50.992;6.798;2023-11-21T08:28:22;49.08;;;27.27;;
2177;SDS011;1095;50.992;6.798;2023-11-21T08:30:50;49.45;;;27.50;;
2177;SDS011;1095;50.992;6.798;2023-11-21T08:33:17;52.85;;;26.23;;
2177;SDS011;1095;50.992;6.798;2023-11-21T08:35:44;56.47;;;27.13;;
2177;SDS011;1095;50.992;6.798;2023-11-21T08:38:11;60.45;;;28.40;;
2177;SDS011;1095;50.992;6.798;2023-11-21T08:40:38;61.35;;;28.80;;
2177;SDS011;1095;50.992;6.798;2023-11-21T08:43:08;57.80;;;27.90;;
2177;SDS011;1095;50.992;6.798;2023-11-21T08:45:37;60.65;;;27.60;;
2177;SDS011;1095;50.992;6.798;2023-11-21T08:48:03;53.47;;;27.02;;
2177;SDS011;1095;50.992;6.798;2023-11-21T08:50:30;59.92;;;26.60;;
2177;SDS011;1095;50.992;6.798;2023-11-21T08:52:57;57.42;;;25.50;;
2177;SDS011;1095;50.992;6.798;2023-11-21T08:55:23;56.90;;;26.83;;
2177;SDS011;1095;50.992;6.798;2023-11-21T08:57:50;51.50;;;25.73;;
2177;SDS011;1095;50.992;6.798;2023-11-21T09:00:18;53.00;;;23.80;;
2177;SDS011;1095;50.992;6.798;2023-11-21T09:02:45;50.63;;;23.55;;
2177;SDS011;1095;50.992;6.798;2023-11-21T09:05:12;47.85;;;23.38;;
2177;SDS011;1095;50.992;6.798;2023-11-21T09:07:42;50.35;;;22.65;;
2177;SDS011;1095;50.992;6.798;2023-11-21T09:10:11;47.35;;;23.60;;
2177;SDS011;1095;50.992;6.798;2023-11-21T09:12:39;55.83;;;23.92;;
2177;SDS011;1095;50.992;6.798;2023-11-21T09:15:08;47.78;;;22.63;;
2177;SDS011;1095;50.992;6.798;2023-11-21T09:17:38;47.17;;;23.48;;
2177;SDS011;1095;50.992;6.798;2023-11-21T09:20:05;49.40;;;22.13;;
2177;SDS011;1095;50.992;6.798;2023-11-21T09:22:35;49.83;;;22.63;;
2177;SDS011;1095;50.992;6.798;2023-11-21T09:25:01;46.72;;;21.77;;
2177;SDS011;1095;50.992;6.798;2023-11-21T09:27:30;45.35;;;21.77;;
2177;SDS011;1095;50.992;6.798;2023-11-21T09:29:57;48.60;;;21.75;;
2177;SDS011;1095;50.992;6.798;2023-11-21T09:32:24;43.67;;;21.98;;
2177;SDS011;1095;50.992;6.798;2023-11-21T09:34:52;45.13;;;22.15;;
2177;SDS011;1095;50.992;6.798;2023-11-21T09:37:20;49.65;;;23.85;;
2177;SDS011;1095;50.992;6.798;2023-11-21T09:39:47;45.83;;;23.83;;
2177;SDS011;1095;50.992;6.798;2023-11-21T09:42:15;54.47;;;22.95;;
2177;SDS011;1095;50.992;6.798;2023-11-21T09:44:48;59.92;;;23.58;;
2177;SDS011;1095;50.992;6.798;2023-11-21T09:47:21;55.65;;;23.17;;
2177;SDS011;1095;50.992;6.798;2023-11-21T09:49:48;54.33;;;22.65;;
2177;SDS011;1095;50.992;6.798;2023-11-21T09:52:18;58.25;;;24.20;;
2177;SDS011;1095;50.992;6.798;2023-11-21T09:54:50;57.58;;;23.38;;
2177;SDS011;1095;50.992;6.798;2023-11-21T09:57:18;56.78;;;23.88;;
2177;SDS011;1095;50.992;6.798;2023-11-21T09:59:46;55.63;;;23.90;;
2177;SDS011;1095;50.992;6.798;2023-11-21T10:02:16;57.35;;;23.88;;
2177;SDS011;1095;50.992;6.798;2023-11-21T10:04:45;51.03;;;23.48;;
2177;SDS011;1095;50.992;6.798;2023-11-21T10:07:13;62.33;;;24.55;;
2177;SDS011;1095;50.992;6.798;2023-11-21T10:09:45;62.40;;;26.73;;
2177;SDS011;1095;50.992;6.798;2023-11-21T10:12:14;47.70;;;23.27;;
2177;SDS011;1095;50.992;6.798;2023-11-21T10:14:41;56.05;;;23.45;;
2177;SDS011;1095;50.992;6.798;2023-11-21T10:17:10;50.50;;;23.35;;
2177;SDS011;1095;50.992;6.798;2023-11-21T10:19:38;56.30;;;23.88;;
2177;SDS011;1095;50.992;6.798;2023-11-21T10:22:05;52.17;;;23.35;;
2177;SDS011;1095;50.992;6.798;2023-11-21T10:24:33;69.07;;;25.90;;
2177;SDS011;1095;50.992;6.798;2023-11-21T10:27:01;56.67;;;25.35;;
2177;SDS011;1095;50.992;6.798;2023-11-21T10:29:28;58.55;;;24.77;;
2177;SDS011;1095;50.992;6.798;2023-11-21T10:31:55;55.25;;;24.65;;
2177;SDS011;1095;50.992;6.798;2023-11-21T10:34:23;55.55;;;24.35;;
2177;SDS011;1095;50.992;6.798;2023-11-21T10:36:52;53.90;;;23.13;;
2177;SDS011;1095;50.992;6.798;2023-11-21T10:39:22;54.60;;;24.73;;
2177;SDS011;1095;50.992;6.798;2023-11-21T10:41:52;56.97;;;23.83;;
2177;SDS011;1095;50.992;6.798;2023-11-21T10:44:22;54.95;;;23.05;;
2177;SDS011;1095;50.992;6.798;2023-11-21T10:46:49;47.78;;;23.08;;
2177;SDS011;1095;50.992;6.798;2023-11-21T10:49:21;55.57;;;23.77;;
2177;SDS011;1095;50.992;6.798;2023-11-21T10:51:49;57.50;;;23.08;;
2177;SDS011;1095;50.992;6.798;2023-11-21T10:54:18;47.20;;;23.10;;
2177;SDS011;1095;50.992;6.798;2023-11-21T10:56:46;56.88;;;24.30;;
2177;SDS011;1095;50.992;6.798;2023-11-21T10:59:16;53.72;;;24.60;;
2177;SDS011;1095;50.992;6.798;2023-11-21T11:01:45;55.05;;;24.42;;
2177;SDS011;1095;50.992;6.798;2023-11-21T11:04:12;53.55;;;23.65;;
2177;SDS011;1095;50.992;6.798;2023-11-21T11:06:42;55.38;;;24.27;;
2177;SDS011;1095;50.992;6.798;2023-11-21T11:09:10;52.10;;;24.48;;
2177;SDS011;1095;50.992;6.798;2023-11-21T11:11:39;53.53;;;23.30;;
2177;SDS011;1095;50.992;6.798;2023-11-21T11:14:06;52.53;;;23.85;;
2177;SDS011;1095;50.992;6.798;2023-11-21T11:16:35;49.38;;;22.95;;
2177;SDS011;1095;50.992;6.798;2023-11-21T11:19:06;51.47;;;25.08;;
2177;SDS011;1095;50.992;6.798;2023-11-21T11:21:36;55.85;;;23.35;;
2177;SDS011;1095;50.992;6.798;2023-11-21T11:24:13;49.53;;;22.25;;
2177;SDS011;1095;50.992;6.798;2023-11-21T11:26:56;50.30;;;23.50;;
2177;SDS011;1095;50.992;6.798;2023-11-21T11:29:29;40.45;;;19.90;;
2177;SDS011;1095;50.992;6.798;2023-11-21T11:32:04;41.58;;;18.85;;
2177;SDS011;1095;50.992;6.798;2023-11-21T11:34:41;38.88;;;19.33;;
2177;SDS011;1095;50.992;6.798;2023-11-21T11:37:15;34.80;;;16.67;;
2177;SDS011;1095;50.992;6.798;2023-11-21T11:39:42;39.50;;;17.08;;
2177;SDS011;1095;50.992;6.798;2023-11-21T11:42:12;38.92;;;17.83;;
2177;SDS011;1095;50.992;6.798;2023-11-21T11:44:46;35.95;;;18.23;;
2177;SDS011;1095;50.992;6.798;2023-11-21T11:47:16;41.78;;;17.10;;
2177;SDS011;1095;50.992;6.798;2023-11-21T11:49:57;43.40;;;17.83;;
2177;SDS011;1095;50.992;6.798;2023-11-21T11:52:32;35.35;;;17.02;;
2177;SDS011;1095;50.992;6.798;2023-11-21T11:55:03;36.05;;;18.35;;
2177;SDS011;1095;50.992;6.798;2023-11-21T11:57:32;42.95;;;17.75;;
2177;SDS011;1095;50.992;6.798;2023-11-21T12:00:13;39.65;;;17.00;;
2177;SDS011;1095;50.992;6.798;2023-11-21T12:02:50;40.03;;;16.98;;
2177;SDS011;1095;50.992;6.798;2023-11-21T12:05:20;35.00;;;16.80;;
2177;SDS011;1095;50.992;6.798;2023-11-21T12:07:48;34.80;;;16.42;;
2177;SDS011;1095;50.992;6.798;2023-11-21T12:10:18;34.00;;;17.23;;
2177;SDS011;1095;50.992;6.798;2023-11-21T12:12:47;37.70;;;16.98;;
2177;SDS011;1095;50.992;6.798;2023-11-21T12:15:15;35.95;;;17.00;;
2177;SDS011;1095;50.992;6.798;2023-11-21T12:17:43;38.60;;;17.92;;
2177;SDS011;1095;50.992;6.798;2023-11-21T12:20:10;35.13;;;17.92;;
2177;SDS011;1095;50.992;6.798;2023-11-21T12:22:43;41.38;;;18.45;;
2177;SDS011;1095;50.992;6.798;2023-11-21T12:25:12;43.10;;;19.55;;
2177;SDS011;1095;50.992;6.798;2023-11-21T12:27:41;45.35;;;19.58;;
2177;SDS011;1095;50.992;6.798;2023-11-21T12:30:10;42.33;;;19.35;;
2177;SDS011;1095;50.992;6.798;2023-11-21T12:32:39;49.35;;;20.42;;
2177;SDS011;1095;50.992;6.798;2023-11-21T12:35:06;46.90;;;21.00;;
2177;SDS011;1095;50.992;6.798;2023-11-21T12:37:34;48.70;;;21.48;;
2177;SDS011;1095;50.992;6.798;2023-11-21T12:40:03;50.47;;;21.40;;
2177;SDS011;1095;50.992;6.798;2023-11-21T12:42:31;40.30;;;19.77;;
2177;SDS011;1095;50.992;6.798;2023-11-21T12:45:08;44.97;;;20.38;;
2177;SDS011;1095;50.992;6.798;2023-11-21T12:47:40;41.42;;;18.10;;
2177;SDS011;1095;50.992;6.798;2023-11-21T12:50:08;43.45;;;18.90;;
2177;SDS011;1095;50.992;6.798;2023-11-21T12:52:39;39.60;;;17.50;;
2177;SDS011;1095;50.992;6.798;2023-11-21T12:55:15;38.63;;;18.60;;
2177;SDS011;1095;50.992;6.798;2023-11-21T12:57:42;38.38;;;17.65;;
2177;SDS011;1095;50.992;6.798;2023-11-21T13:00:10;37.22;;;17.00;;
2177;SDS011;1095;50.992;6.798;2023-11-21T13:02:51;33.92;;;17.27;;
2177;SDS011;1095;50.992;6.798;2023-11-21T13:05:25;31.25;;;17.10;;
2177;SDS011;1095;50.992;6.798;2023-11-21T13:07:53;31.88;;;15.98;;
2177;SDS011;1095;50.992;6.798;2023-11-21T13:10:23;33.90;;;15.38;;
2177;SDS011;1095;50.992;6.798;2023-11-21T13:12:54;31.58;;;15.57;;
2177;SDS011;1095;50.992;6.798;2023-11-21T13:15:23;30.27;;;15.32;;
2177;SDS011;1095;50.992;6.798;2023-11-21T13:17:50;35.38;;;16.50;;
2177;SDS011;1095;50.992;6.798;2023-11-21T13:20:18;31.40;;;15.65;;
2177;SDS011;1095;50.992;6.798;2023-11-21T13:22:49;33.63;;;15.48;;
2177;SDS011;1095;50.992;6.798;2023-11-21T13:25:18;35.08;;;16.42;;
2177;SDS011;1095;50.992;6.798;2023-11-21T13:27:47;32.72;;;17.42;;
2177;SDS011;1095;50.992;6.798;2023-11-21T13:30:14;37.80;;;17.48;;
2177;SDS011;1095;50.992;6.798;2023-11-21T13:32:42;41.60;;;20.00;;
2177;SDS011;1095;50.992;6.798;2023-11-21T13:35:10;42.10;;;20.38;;
2177;SDS011;1095;50.992;6.798;2023-11-21T13:37:46;41.65;;;17.80;;
2177;SDS011;1095;50.992;6.798;2023-11-21T13:40:16;39.05;;;20.30;;
2177;SDS011;1095;50.992;6.798;2023-11-21T13:42:51;39.63;;;20.25;;
2177;SDS011;1095;50.992;6.798;2023-11-21T13:45:24;37.63;;;19.60;;
2177;SDS011;1095;50.992;6.798;2023-11-21T13:47:53;36.58;;;19.95;;
2177;SDS011;1095;50.992;6.798;2023-11-21T13:50:22;43.60;;;20.40;;
2177;SDS011;1095;50.992;6.798;2023-11-21T13:52:52;37.60;;;19.90;;
2177;SDS011;1095;50.992;6.798;2023-11-21T13:55:19;36.38;;;18.42;;
2177;SDS011;1095;50.992;6.798;2023-11-21T13:57:50;35.75;;;18.80;;
2177;SDS011;1095;50.992;6.798;2023-11-21T14:00:17;42.67;;;17.55;;
2177;SDS011;1095;50.992;6.798;2023-11-21T14:03:07;38.13;;;18.10;;
2177;SDS011;1095;50.992;6.798;2023-11-21T14:05:42;37.60;;;18.85;;
2177;SDS011;1095;50.992;6.798;2023-11-21T14:08:09;40.10;;;19.60;;
2177;SDS011;1095;50.992;6.798;2023-11-21T14:10:39;37.53;;;18.80;;
2177;SDS011;1095;50.992;6.798;2023-11-21T14:13:09;39.35;;;18.05;;
2177;SDS011;1095;50.992;6.798;2023-11-21T14:15:37;42.50;;;18.60;;
2177;SDS011;1095;50.992;6.798;2023-11-21T14:18:08;40.92;;;17.80;;
2177;SDS011;1095;50.992;6.798;2023-11-21T14:20:36;35.78;;;17.55;;
2177;SDS011;1095;50.992;6.798;2023-11-21T14:23:03;36.38;;;18.08;;
2177;SDS011;1095;50.992;6.798;2023-11-21T14:25:31;36.75;;;17.05;;
2177;SDS011;1095;50.992;6.798;2023-11-21T14:27:58;39.85;;;18.10;;
2177;SDS011;1095;50.992;6.798;2023-11-21T14:30:26;40.50;;;17.77;;
2177;SDS011;1095;50.992;6.798;2023-11-21T14:32:55;33.72;;;16.48;;
2177;SDS011;1095;50.992;6.798;2023-11-21T14:35:21;37.15;;;17.58;;
2177;SDS011;1095;50.992;6.798;2023-11-21T14:37:48;37.28;;;17.25;;
2177;SDS011;1095;50.992;6.798;2023-11-21T14:40:14;35.55;;;17.70;;
2177;SDS011;1095;50.992;6.798;2023-11-21T14:42:42;40.28;;;18.48;;
2177;SDS011;1095;50.992;6.798;2023-11-21T14:45:12;42.90;;;19.02;;
2177;SDS011;1095;50.992;6.798;2023-11-21T14:47:46;40.05;;;18.27;;
2177;SDS011;1095;50.992;6.798;2023-11-21T14:50:20;43.67;;;20.85;;
2177;SDS011;1095;50.992;6.798;2023-11-21T14:53:13;43.65;;;21.05;;
2177;SDS011;1095;50.992;6.798;2023-11-21T14:55:38;46.45;;;21.10;;